Погода Шетлевекна неделю

Великопольское воеводство, Польша

19 - 25 июля
  • 19июля
    Сегодня
    +15°
    +26°
    Небольшая облачность
    ВремяПогодаТемператураВлажностьДавлениеВетер, м/сВероятность осадков
    02:00Облачно с прояснениями+17°C86 %760 мм2.3 м/с2 %
    05:00Небольшая облачность+16°C92 %759 мм1.9 м/с2 %
    08:00Ясно и безоблачно+19°C78 %759 мм1.5 м/с2 %
    11:00Небольшая облачность+23°C60 %759 мм0.6 м/с2 %
    14:00Небольшая облачность+25°C52 %758 мм1.2 м/с2 %
    17:00Облачно с прояснениями+26°C50 %757 мм1.8 м/с2 %
    20:00Практически безоблачно+24°C72 %756 мм1.2 м/с2 %
    23:00Ясно и безоблачно+19°C79 %756 мм1.9 м/с2 %
  • 20июля
    Суббота
    +15°
    +28°
    Небольшая облачность
    ВремяПогодаТемператураВлажностьДавлениеВетер, м/сВероятность осадков
    02:00Облачно с прояснениями+16°C84 %755 мм2.3 м/с2 %
    05:00Облачно с прояснениями+15°C88 %755 мм1.9 м/с2 %
    08:00Небольшая облачность+20°C70 %754 мм0.3 м/с2 %
    11:00Облачно с прояснениями+25°C51 %754 мм0.1 м/с2 %
    14:00Небольшая облачность+26°C43 %753 мм0.6 м/с2 %
    17:00Ясно и безоблачно+27°C40 %752 мм1.0 м/с2 %
    20:00Облачно с прояснениями+25°C60 %751 мм0.8 м/с2 %
    23:00Небольшая облачность+21°C62 %751 мм3.3 м/с2 %
  • 21июля
    Воскресенье
    +17°
    +30°
    Ясно и безоблачно
    ВремяПогодаТемператураВлажностьДавлениеВетер, м/сВероятность осадков
    02:00Ясно и безоблачно+18°C72 %750 мм2.1 м/с2 %
    05:00Ясно и безоблачно+16°C87 %750 мм2.3 м/с2 %
    08:00Ясно и безоблачно+21°C67 %750 мм1.7 м/с2 %
    11:00Ясно и безоблачно+26°C46 %750 мм1.7 м/с2 %
    14:00Ясно и безоблачно+28°C40 %750 мм1.6 м/с2 %
    17:00Ясно и безоблачно+29°C38 %749 мм1.7 м/с2 %
    20:00Ясно и безоблачно+26°C54 %749 мм1.9 м/с2 %
    23:00Ясно и безоблачно+21°C61 %749 мм2.8 м/с2 %
  • 22июля
    Понедельник
    +15°
    +30°
    Ясно и безоблачно
    ВремяПогодаТемператураВлажностьДавлениеВетер, м/сВероятность осадков
    02:00Практически безоблачно+20°C71 %749 мм2.7 м/с2 %
    05:00Ясно и безоблачно+17°C86 %749 мм1.7 м/с2 %
    08:00Ясно и безоблачно+22°C72 %750 мм1.1 м/с2 %
    11:00Ясно и безоблачно+27°C45 %750 мм1.0 м/с3 %
    14:00Ясно и безоблачно+29°C35 %750 мм0.8 м/с16 %
    17:00Пасмурно, сплошная облачность+23°C69 %751 мм6.6 м/с32 %
    20:00Пасмурно, сплошная облачность+21°C79 %752 мм3.2 м/с34 %
    23:00Облачно с прояснениями+19°C93 %753 мм2.4 м/с31 %
  • 23июля
    Вторник
    +14°
    +24°
    Ясно и безоблачно
    ВремяПогодаТемператураВлажностьДавлениеВетер, м/сВероятность осадков
    02:00Практически безоблачно+18°C95 %753 мм4.2 м/с42 %
    05:00Практически безоблачно+16°C94 %754 мм4.1 м/с29 %
    08:00Облачно с прояснениями+18°C83 %755 мм3.6 м/с27 %
    11:00Практически безоблачно+21°C59 %755 мм4.1 м/с30 %
    14:00Ясно и безоблачно+23°C49 %754 мм3.4 м/с29 %
    17:00Ясно и безоблачно+24°C43 %754 мм2.8 м/с23 %
    20:00Ясно и безоблачно+22°C59 %753 мм1.4 м/с16 %
    23:00Ясно и безоблачно+17°C74 %753 мм2.2 м/с17 %
Мы используем cookies
Соглашаюсь